sensor_id;sensor_type;location;lat;lon;timestamp;pressure;altitude;pressure_sealevel;temperature;humidity
39891;BME280;25564;53.312;9.790;2022-12-16T00:01:33;100295.13;;;-1.73;94.92
39891;BME280;25564;53.312;9.790;2022-12-16T00:04:05;100326.78;;;-1.55;95.32
39891;BME280;25564;53.312;9.790;2022-12-16T00:06:36;100315.41;;;-1.58;95.36
39891;BME280;25564;53.312;9.790;2022-12-16T00:09:07;100336.53;;;-1.46;94.82
39891;BME280;25564;53.312;9.790;2022-12-16T00:11:39;100347.91;;;-1.43;94.70
39891;BME280;25564;53.312;9.790;2022-12-16T00:14:10;100340.03;;;-1.46;94.93
39891;BME280;25564;53.312;9.790;2022-12-16T00:16:42;100351.34;;;-1.44;95.14
39891;BME280;25564;53.312;9.790;2022-12-16T00:19:13;100347.00;;;-1.45;95.12
39891;BME280;25564;53.312;9.790;2022-12-16T00:21:45;100352.19;;;-1.45;95.47
39891;BME280;25564;53.312;9.790;2022-12-16T00:24:16;100315.28;;;-1.65;94.73
39891;BME280;25564;53.312;9.790;2022-12-16T00:26:47;100346.16;;;-1.44;95.37
39891;BME280;25564;53.312;9.790;2022-12-16T00:29:19;100353.09;;;-1.43;94.96
39891;BME280;25564;53.312;9.790;2022-12-16T00:31:50;100359.16;;;-1.44;94.66
39891;BME280;25564;53.312;9.790;2022-12-16T00:34:22;100354.78;;;-1.45;95.26
39891;BME280;25564;53.312;9.790;2022-12-16T00:36:54;100361.75;;;-1.44;94.81
39891;BME280;25564;53.312;9.790;2022-12-16T00:39:25;100357.44;;;-1.43;94.58
39891;BME280;25564;53.312;9.790;2022-12-16T00:41:56;100347.59;;;-1.55;94.61
39891;BME280;25564;53.312;9.790;2022-12-16T00:44:28;100349.41;;;-1.52;95.44
39891;BME280;25564;53.312;9.790;2022-12-16T00:46:59;100360.84;;;-1.46;95.11
39891;BME280;25564;53.312;9.790;2022-12-16T00:49:31;100359.13;;;-1.45;95.27
39891;BME280;25564;53.312;9.790;2022-12-16T00:52:02;100360.84;;;-1.46;94.64
39891;BME280;25564;53.312;9.790;2022-12-16T00:54:37;100354.63;;;-1.51;94.67
39891;BME280;25564;53.312;9.790;2022-12-16T00:57:08;100327.25;;;-1.71;94.89
39891;BME280;25564;53.312;9.790;2022-12-16T00:59:40;100354.47;;;-1.57;94.94
39891;BME280;25564;53.312;9.790;2022-12-16T01:02:11;100359.00;;;-1.50;95.04
39891;BME280;25564;53.312;9.790;2022-12-16T01:04:43;100358.88;;;-1.54;94.26
39891;BME280;25564;53.312;9.790;2022-12-16T01:07:14;100366.84;;;-1.48;94.46
39891;BME280;25564;53.312;9.790;2022-12-16T01:09:46;100373.78;;;-1.49;94.90
39891;BME280;25564;53.312;9.790;2022-12-16T01:12:17;100361.50;;;-1.54;94.54
39891;BME280;25564;53.312;9.790;2022-12-16T01:14:48;100359.44;;;-1.66;94.74
39891;BME280;25564;53.312;9.790;2022-12-16T01:17:20;100355.88;;;-1.70;94.49
39891;BME280;25564;53.312;9.790;2022-12-16T01:19:55;100372.47;;;-1.66;94.54
39891;BME280;25564;53.312;9.790;2022-12-16T01:22:29;100373.31;;;-1.67;93.87
39891;BME280;25564;53.312;9.790;2022-12-16T01:25:02;100376.78;;;-1.67;95.08
39891;BME280;25564;53.312;9.790;2022-12-16T01:27:33;100389.78;;;-1.67;93.93
39891;BME280;25564;53.312;9.790;2022-12-16T01:30:06;100355.53;;;-1.83;94.59
39891;BME280;25564;53.312;9.790;2022-12-16T01:32:39;100392.50;;;-1.62;94.44
39891;BME280;25564;53.312;9.790;2022-12-16T01:35:10;100390.66;;;-1.66;94.33
39891;BME280;25564;53.312;9.790;2022-12-16T01:38:03;100406.44;;;-1.60;94.46
39891;BME280;25564;53.312;9.790;2022-12-16T01:40:34;100399.41;;;-1.64;93.87
39891;BME280;25564;53.312;9.790;2022-12-16T01:43:11;100399.31;;;-1.67;94.86
39891;BME280;25564;53.312;9.790;2022-12-16T01:45:44;100403.56;;;-1.71;94.12
39891;BME280;25564;53.312;9.790;2022-12-16T01:48:36;100420.97;;;-1.68;95.01
39891;BME280;25564;53.312;9.790;2022-12-16T01:54:11;100404.28;;;-1.76;95.00
39891;BME280;25564;53.312;9.790;2022-12-16T01:56:51;100397.13;;;-1.83;95.06
39891;BME280;25564;53.312;9.790;2022-12-16T01:59:27;100400.59;;;-1.84;94.49
39891;BME280;25564;53.312;9.790;2022-12-16T02:02:00;100410.28;;;-1.79;95.02
39891;BME280;25564;53.312;9.790;2022-12-16T02:04:33;100418.19;;;-1.74;95.50
39891;BME280;25564;53.312;9.790;2022-12-16T02:07:04;100426.91;;;-1.72;95.45
39891;BME280;25564;53.312;9.790;2022-12-16T02:09:35;100426.16;;;-1.68;94.57
39891;BME280;25564;53.312;9.790;2022-12-16T02:12:35;100417.47;;;-1.69;95.28
39891;BME280;25564;53.312;9.790;2022-12-16T02:19:50;100425.25;;;-1.70;94.56
39891;BME280;25564;53.312;9.790;2022-12-16T02:22:37;100423.53;;;-1.70;95.10
39891;BME280;25564;53.312;9.790;2022-12-16T02:25:20;100424.41;;;-1.69;94.97
39891;BME280;25564;53.312;9.790;2022-12-16T02:28:22;100420.88;;;-1.71;94.65
39891;BME280;25564;53.312;9.790;2022-12-16T02:31:05;100404.31;;;-1.75;95.19
39891;BME280;25564;53.312;9.790;2022-12-16T02:33:47;100412.06;;;-1.76;94.72
39891;BME280;25564;53.312;9.790;2022-12-16T02:36:36;100426.16;;;-1.68;95.03
39891;BME280;25564;53.312;9.790;2022-12-16T02:39:58;100399.66;;;-1.86;95.31
39891;BME280;25564;53.312;9.790;2022-12-16T02:42:34;100413.72;;;-1.80;95.26
39891;BME280;25564;53.312;9.790;2022-12-16T02:45:17;100428.63;;;-1.73;95.27
39891;BME280;25564;53.312;9.790;2022-12-16T02:47:50;100426.91;;;-1.72;94.69
39891;BME280;25564;53.312;9.790;2022-12-16T02:50:25;100395.22;;;-1.90;95.21
39891;BME280;25564;53.312;9.790;2022-12-16T02:52:58;100432.13;;;-1.72;95.27
39891;BME280;25564;53.312;9.790;2022-12-16T02:58:19;100425.06;;;-1.76;95.23
39891;BME280;25564;53.312;9.790;2022-12-16T03:01:11;100436.44;;;-1.73;95.10
39891;BME280;25564;53.312;9.790;2022-12-16T03:06:24;100437.31;;;-1.72;94.36
39891;BME280;25564;53.312;9.790;2022-12-16T03:09:00;100425.16;;;-1.73;95.40
39891;BME280;25564;53.312;9.790;2022-12-16T03:11:33;100424.22;;;-1.75;95.32
39891;BME280;25564;53.312;9.790;2022-12-16T03:14:07;100421.47;;;-1.81;95.32
39891;BME280;25564;53.312;9.790;2022-12-16T03:16:42;100416.28;;;-1.81;95.19
39891;BME280;25564;53.312;9.790;2022-12-16T03:19:15;100408.28;;;-1.87;95.41
39891;BME280;25564;53.312;9.790;2022-12-16T03:21:53;100426.97;;;-1.71;94.37
39891;BME280;25564;53.312;9.790;2022-12-16T03:24:25;100431.31;;;-1.70;95.18
39891;BME280;25564;53.312;9.790;2022-12-16T03:27:11;100419.97;;;-1.73;95.00
39891;BME280;25564;53.312;9.790;2022-12-16T03:29:53;100435.91;;;-1.61;95.48
39891;BME280;25564;53.312;9.790;2022-12-16T03:32:38;100421.03;;;-1.65;95.01
39891;BME280;25564;53.312;9.790;2022-12-16T03:37:48;100436.84;;;-1.57;95.09
39891;BME280;25564;53.312;9.790;2022-12-16T03:40:23;100411.44;;;-1.68;94.68
39891;BME280;25564;53.312;9.790;2022-12-16T03:42:55;100437.81;;;-1.54;94.36
39891;BME280;25564;53.312;9.790;2022-12-16T03:45:31;100446.47;;;-1.55;94.32
39891;BME280;25564;53.312;9.790;2022-12-16T03:48:08;100436.91;;;-1.56;94.94
39891;BME280;25564;53.312;9.790;2022-12-16T03:50:40;100454.31;;;-1.53;95.49
39891;BME280;25564;53.312;9.790;2022-12-16T03:53:11;100447.44;;;-1.51;94.73
39891;BME280;25564;53.312;9.790;2022-12-16T03:55:43;100442.94;;;-1.57;94.78
39891;BME280;25564;53.312;9.790;2022-12-16T03:58:14;100449.31;;;-1.46;94.84
39891;BME280;25564;53.312;9.790;2022-12-16T04:00:45;100456.31;;;-1.43;94.99
39891;BME280;25564;53.312;9.790;2022-12-16T04:03:17;100443.97;;;-1.50;94.42
39891;BME280;25564;53.312;9.790;2022-12-16T04:05:48;100458.97;;;-1.42;95.17
39891;BME280;25564;53.312;9.790;2022-12-16T04:08:20;100432.63;;;-1.54;94.47
39891;BME280;25564;53.312;9.790;2022-12-16T04:10:52;100455.44;;;-1.44;94.68
39891;BME280;25564;53.312;9.790;2022-12-16T04:13:42;100441.25;;;-1.55;95.30
39891;BME280;25564;53.312;9.790;2022-12-16T04:16:32;100428.84;;;-1.65;94.96
39891;BME280;25564;53.312;9.790;2022-12-16T04:19:25;100439.13;;;-1.70;95.06
39891;BME280;25564;53.312;9.790;2022-12-16T04:22:24;100430.66;;;-1.94;94.57
39891;BME280;25564;53.312;9.790;2022-12-16T04:25:24;100451.09;;;-2.06;93.78
39891;BME280;25564;53.312;9.790;2022-12-16T04:27:56;100438.44;;;-2.25;94.01
39891;BME280;25564;53.312;9.790;2022-12-16T04:30:30;100438.81;;;-2.42;93.61
39891;BME280;25564;53.312;9.790;2022-12-16T04:33:08;100458.53;;;-2.48;93.72
39891;BME280;25564;53.312;9.790;2022-12-16T04:35:59;100436.06;;;-2.75;94.12
39891;BME280;25564;53.312;9.790;2022-12-16T04:38:49;100450.44;;;-2.86;93.98
39891;BME280;25564;53.312;9.790;2022-12-16T04:41:39;100463.22;;;-2.92;93.17
39891;BME280;25564;53.312;9.790;2022-12-16T04:44:29;100476.84;;;-2.99;93.31
39891;BME280;25564;53.312;9.790;2022-12-16T04:47:19;100459.81;;;-3.18;93.24
39891;BME280;25564;53.312;9.790;2022-12-16T04:50:09;100456.63;;;-3.35;93.04
39891;BME280;25564;53.312;9.790;2022-12-16T04:52:59;100475.53;;;-3.39;93.27
39891;BME280;25564;53.312;9.790;2022-12-16T04:55:49;100486.69;;;-3.41;93.15
39891;BME280;25564;53.312;9.790;2022-12-16T04:58:39;100480.06;;;-3.57;93.34
39891;BME280;25564;53.312;9.790;2022-12-16T05:01:29;100483.16;;;-3.67;92.80
39891;BME280;25564;53.312;9.790;2022-12-16T05:04:19;100481.91;;;-3.78;92.82
39891;BME280;25564;53.312;9.790;2022-12-16T05:07:08;100503.56;;;-3.76;92.96
39891;BME280;25564;53.312;9.790;2022-12-16T05:10:06;100492.53;;;-3.95;92.93
39891;BME280;25564;53.312;9.790;2022-12-16T05:12:56;100506.31;;;-3.96;93.25
39891;BME280;25564;53.312;9.790;2022-12-16T05:15:46;100499.84;;;-4.07;92.89
39891;BME280;25564;53.312;9.790;2022-12-16T05:18:36;100517.28;;;-4.03;92.44
39891;BME280;25564;53.312;9.790;2022-12-16T05:21:26;100518.75;;;-4.09;92.67
39891;BME280;25564;53.312;9.790;2022-12-16T05:24:16;100521.97;;;-4.16;92.69
39891;BME280;25564;53.312;9.790;2022-12-16T05:27:06;100506.56;;;-4.36;92.26
39891;BME280;25564;53.312;9.790;2022-12-16T05:29:56;100522.09;;;-4.36;91.92
39891;BME280;25564;53.312;9.790;2022-12-16T05:32:49;100520.97;;;-4.42;92.07
39891;BME280;25564;53.312;9.790;2022-12-16T05:35:39;100527.63;;;-4.49;92.10
39891;BME280;25564;53.312;9.790;2022-12-16T05:38:29;100532.38;;;-4.59;92.00
39891;BME280;25564;53.312;9.790;2022-12-16T05:41:19;100534.72;;;-4.66;92.03
39891;BME280;25564;53.312;9.790;2022-12-16T05:44:09;100526.38;;;-4.79;92.19
39891;BME280;25564;53.312;9.790;2022-12-16T05:46:59;100541.78;;;-4.82;91.38
39891;BME280;25564;53.312;9.790;2022-12-16T05:49:49;100542.38;;;-4.89;91.93
39891;BME280;25564;53.312;9.790;2022-12-16T05:52:39;100534.84;;;-5.04;91.55
39891;BME280;25564;53.312;9.790;2022-12-16T05:55:29;100545.06;;;-5.07;91.52
39891;BME280;25564;53.312;9.790;2022-12-16T05:58:19;100552.91;;;-5.06;91.55
39891;BME280;25564;53.312;9.790;2022-12-16T06:01:09;100529.16;;;-5.16;91.35
39891;BME280;25564;53.312;9.790;2022-12-16T06:03:59;100556.94;;;-5.12;91.54
39891;BME280;25564;53.312;9.790;2022-12-16T06:06:50;100545.44;;;-5.19;91.11
39891;BME280;25564;53.312;9.790;2022-12-16T06:09:39;100558.28;;;-5.22;91.36
39891;BME280;25564;53.312;9.790;2022-12-16T06:12:29;100582.59;;;-5.17;91.43
39891;BME280;25564;53.312;9.790;2022-12-16T06:15:19;100557.81;;;-5.33;90.83
39891;BME280;25564;53.312;9.790;2022-12-16T06:18:09;100578.69;;;-5.28;91.23
39891;BME280;25564;53.312;9.790;2022-12-16T06:21:00;100570.75;;;-5.33;90.90
39891;BME280;25564;53.312;9.790;2022-12-16T06:23:49;100554.28;;;-5.54;90.59
39891;BME280;25564;53.312;9.790;2022-12-16T06:26:39;100571.56;;;-5.53;91.01
39891;BME280;25564;53.312;9.790;2022-12-16T06:29:29;100560.34;;;-5.73;90.77
39891;BME280;25564;53.312;9.790;2022-12-16T06:32:19;100578.63;;;-5.68;90.71
39891;BME280;25564;53.312;9.790;2022-12-16T06:35:09;100581.16;;;-5.70;90.90
39891;BME280;25564;53.312;9.790;2022-12-16T06:37:59;100588.28;;;-5.64;90.92
39891;BME280;25564;53.312;9.790;2022-12-16T06:40:49;100612.38;;;-5.65;90.80
39891;BME280;25564;53.312;9.790;2022-12-16T06:43:39;100609.56;;;-5.70;90.83
39891;BME280;25564;53.312;9.790;2022-12-16T06:46:29;100577.28;;;-5.99;90.86
39891;BME280;25564;53.312;9.790;2022-12-16T06:49:19;100620.31;;;-5.80;90.12
39891;BME280;25564;53.312;9.790;2022-12-16T06:52:09;100597.88;;;-6.00;90.52
39891;BME280;25564;53.312;9.790;2022-12-16T06:54:59;100586.38;;;-6.07;90.37
39891;BME280;25564;53.312;9.790;2022-12-16T06:57:56;100632.69;;;-5.92;90.18
39891;BME280;25564;53.312;9.790;2022-12-16T07:00:46;100621.47;;;-5.93;90.20
39891;BME280;25564;53.312;9.790;2022-12-16T07:03:36;100605.25;;;-6.08;90.69
39891;BME280;25564;53.312;9.790;2022-12-16T07:06:25;100627.44;;;-5.94;90.98
39891;BME280;25564;53.312;9.790;2022-12-16T07:09:15;100638.00;;;-5.89;91.07
39891;BME280;25564;53.312;9.790;2022-12-16T07:12:05;100643.19;;;-5.87;90.73
39891;BME280;25564;53.312;9.790;2022-12-16T07:14:55;100649.31;;;-5.85;90.82
39891;BME280;25564;53.312;9.790;2022-12-16T07:17:45;100655.59;;;-5.80;91.41
39891;BME280;25564;53.312;9.790;2022-12-16T07:20:35;100669.75;;;-5.72;91.06
39891;BME280;25564;53.312;9.790;2022-12-16T07:23:25;100643.50;;;-5.81;90.96
39891;BME280;25564;53.312;9.790;2022-12-16T07:26:15;100684.28;;;-5.56;91.53
39891;BME280;25564;53.312;9.790;2022-12-16T07:29:05;100686.25;;;-5.51;91.64
39891;BME280;25564;53.312;9.790;2022-12-16T07:31:55;100686.25;;;-5.51;91.89
39891;BME280;25564;53.312;9.790;2022-12-16T07:34:45;100671.81;;;-5.65;91.35
39891;BME280;25564;53.312;9.790;2022-12-16T07:37:37;100694.84;;;-5.52;91.73
39891;BME280;25564;53.312;9.790;2022-12-16T07:40:27;100686.78;;;-5.58;91.21
39891;BME280;25564;53.312;9.790;2022-12-16T07:43:22;100688.50;;;-5.58;91.29
39891;BME280;25564;53.312;9.790;2022-12-16T07:46:12;100695.72;;;-5.51;90.94
39891;BME280;25564;53.312;9.790;2022-12-16T07:49:02;100716.53;;;-5.48;91.96
39891;BME280;25564;53.312;9.790;2022-12-16T07:51:51;100717.28;;;-5.51;91.55
39891;BME280;25564;53.312;9.790;2022-12-16T07:54:41;100703.72;;;-5.65;91.10
39891;BME280;25564;53.312;9.790;2022-12-16T07:57:31;100716.84;;;-5.60;91.57
39891;BME280;25564;53.312;9.790;2022-12-16T08:00:21;100728.28;;;-5.55;91.05
39891;BME280;25564;53.312;9.790;2022-12-16T08:03:11;100726.75;;;-5.51;91.01
39891;BME280;25564;53.312;9.790;2022-12-16T08:06:02;100729.41;;;-5.50;91.30
39891;BME280;25564;53.312;9.790;2022-12-16T08:08:52;100699.13;;;-5.70;91.32
39891;BME280;25564;53.312;9.790;2022-12-16T08:11:42;100736.25;;;-5.50;91.30
39891;BME280;25564;53.312;9.790;2022-12-16T08:14:32;100748.44;;;-5.48;91.33
39891;BME280;25564;53.312;9.790;2022-12-16T08:17:22;100720.09;;;-5.64;90.78
39891;BME280;25564;53.312;9.790;2022-12-16T08:20:12;100736.03;;;-5.55;91.07
39891;BME280;25564;53.312;9.790;2022-12-16T08:23:02;100754.72;;;-5.43;90.69
39891;BME280;25564;53.312;9.790;2022-12-16T08:25:52;100760.63;;;-5.45;91.24
39891;BME280;25564;53.312;9.790;2022-12-16T08:28:42;100780.66;;;-5.41;90.72
39891;BME280;25564;53.312;9.790;2022-12-16T08:31:52;100762.56;;;-5.59;91.09
39891;BME280;25564;53.312;9.790;2022-12-16T08:34:42;100773.56;;;-5.45;91.10
39891;BME280;25564;53.312;9.790;2022-12-16T08:37:32;100792.84;;;-5.19;91.74
39891;BME280;25564;53.312;9.790;2022-12-16T08:40:22;100799.16;;;-4.95;91.97
39891;BME280;25564;53.312;9.790;2022-12-16T08:43:13;100806.41;;;-4.69;91.53
39891;BME280;25564;53.312;9.790;2022-12-16T08:46:03;100810.97;;;-4.44;91.85
39891;BME280;25564;53.312;9.790;2022-12-16T08:48:53;100812.78;;;-4.22;92.36
39891;BME280;25564;53.312;9.790;2022-12-16T08:51:43;100810.25;;;-4.00;92.39
39891;BME280;25564;53.312;9.790;2022-12-16T08:54:33;100825.94;;;-3.76;92.98
39891;BME280;25564;53.312;9.790;2022-12-16T08:57:23;100824.16;;;-3.56;92.64
39891;BME280;25564;53.312;9.790;2022-12-16T09:00:13;100816.13;;;-3.41;92.84
39891;BME280;25564;53.312;9.790;2022-12-16T09:03:03;100808.44;;;-3.38;93.24
39891;BME280;25564;53.312;9.790;2022-12-16T09:05:58;100820.50;;;-3.18;93.09
39891;BME280;25564;53.312;9.790;2022-12-16T09:08:48;100831.25;;;-3.07;93.47
39891;BME280;25564;53.312;9.790;2022-12-16T09:11:39;100805.13;;;-3.12;92.98
39891;BME280;25564;53.312;9.790;2022-12-16T09:14:28;100836.53;;;-2.83;93.41
39891;BME280;25564;53.312;9.790;2022-12-16T09:17:18;100829.19;;;-2.71;93.71
39891;BME280;25564;53.312;9.790;2022-12-16T09:20:09;100824.22;;;-2.65;93.42
39891;BME280;25564;53.312;9.790;2022-12-16T09:23:03;100834.47;;;-2.46;93.96
39891;BME280;25564;53.312;9.790;2022-12-16T09:25:53;100833.81;;;-2.40;93.82
39891;BME280;25564;53.312;9.790;2022-12-16T09:28:43;100847.25;;;-2.28;94.15
39891;BME280;25564;53.312;9.790;2022-12-16T09:31:33;100848.97;;;-2.28;94.62
39891;BME280;25564;53.312;9.790;2022-12-16T09:34:22;100858.03;;;-2.17;94.65
39891;BME280;25564;53.312;9.790;2022-12-16T09:37:13;100856.31;;;-2.17;94.37
39891;BME280;25564;53.312;9.790;2022-12-16T09:40:03;100853.94;;;-2.11;94.20
39891;BME280;25564;53.312;9.790;2022-12-16T09:43:33;100860.41;;;-1.98;94.07
39891;BME280;25564;53.312;9.790;2022-12-16T09:47:01;100863.94;;;-1.96;95.01
39891;BME280;25564;53.312;9.790;2022-12-16T09:49:54;100865.66;;;-1.97;94.51
39891;BME280;25564;53.312;9.790;2022-12-16T09:52:53;100864.13;;;-1.91;94.85
39891;BME280;25564;53.312;9.790;2022-12-16T09:55:46;100864.13;;;-1.91;94.48
39891;BME280;25564;53.312;9.790;2022-12-16T09:58:40;100850.00;;;-1.98;94.55
39891;BME280;25564;53.312;9.790;2022-12-16T10:01:35;100867.69;;;-1.88;94.66
39891;BME280;25564;53.312;9.790;2022-12-16T10:04:26;100877.53;;;-1.79;95.46
39891;BME280;25564;53.312;9.790;2022-12-16T10:07:20;100872.13;;;-1.85;94.71
39891;BME280;25564;53.312;9.790;2022-12-16T10:13:39;100876.28;;;-1.65;95.67
39891;BME280;25564;53.312;9.790;2022-12-16T10:17:22;100881.81;;;-1.56;94.92
39891;BME280;25564;53.312;9.790;2022-12-16T10:23:21;100895.88;;;-1.51;95.21
39891;BME280;25564;53.312;9.790;2022-12-16T10:26:52;100885.34;;;-1.54;94.94
39891;BME280;25564;53.312;9.790;2022-12-16T10:29:44;100888.94;;;-1.50;95.22
39891;BME280;25564;53.312;9.790;2022-12-16T10:32:48;100886.59;;;-1.43;95.08
39891;BME280;25564;53.312;9.790;2022-12-16T10:35:46;100887.63;;;-1.38;95.40
39891;BME280;25564;53.312;9.790;2022-12-16T10:38:45;100874.41;;;-1.44;94.94
39891;BME280;25564;53.312;9.790;2022-12-16T10:41:42;100877.22;;;-1.38;95.39
39891;BME280;25564;53.312;9.790;2022-12-16T10:44:34;100897.41;;;-1.30;95.47
39891;BME280;25564;53.312;9.790;2022-12-16T10:47:26;100893.25;;;-1.25;95.99
39891;BME280;25564;53.312;9.790;2022-12-16T10:50:16;100867.00;;;-1.32;95.62
39891;BME280;25564;53.312;9.790;2022-12-16T10:53:15;100900.63;;;-1.12;96.08
39891;BME280;25564;53.312;9.790;2022-12-16T10:59:04;100894.69;;;-1.08;95.18
39891;BME280;25564;53.312;9.790;2022-12-16T11:02:01;100894.97;;;-0.98;95.73
39891;BME280;25564;53.312;9.790;2022-12-16T11:04:52;100893.41;;;-0.92;94.93
39891;BME280;25564;53.312;9.790;2022-12-16T11:10:36;100885.84;;;-0.85;95.84
39891;BME280;25564;53.312;9.790;2022-12-16T11:13:30;100887.59;;;-0.84;95.10
39891;BME280;25564;53.312;9.790;2022-12-16T11:16:24;100886.72;;;-0.84;96.18
39891;BME280;25564;53.312;9.790;2022-12-16T11:22:17;100893.97;;;-0.74;96.06
39891;BME280;25564;53.312;9.790;2022-12-16T11:25:14;100873.84;;;-0.80;95.78
39891;BME280;25564;53.312;9.790;2022-12-16T11:28:16;100886.41;;;-0.67;96.02
39891;BME280;25564;53.312;9.790;2022-12-16T11:31:12;100900.53;;;-0.58;95.72
39891;BME280;25564;53.312;9.790;2022-12-16T11:34:19;100898.91;;;-0.55;95.66
39891;BME280;25564;53.312;9.790;2022-12-16T11:37:09;100905.00;;;-0.54;95.54
39891;BME280;25564;53.312;9.790;2022-12-16T11:40:00;100897.88;;;-0.60;95.50
39891;BME280;25564;53.312;9.790;2022-12-16T11:42:51;100883.94;;;-0.62;95.52
39891;BME280;25564;53.312;9.790;2022-12-16T11:45:48;100905.38;;;-0.42;95.76
39891;BME280;25564;53.312;9.790;2022-12-16T11:48:46;100908.25;;;-0.33;95.23
39891;BME280;25564;53.312;9.790;2022-12-16T11:51:39;100897.03;;;-0.30;95.27
39891;BME280;25564;53.312;9.790;2022-12-16T11:55:03;100896.16;;;-0.31;94.96
39891;BME280;25564;53.312;9.790;2022-12-16T12:01:44;100900.91;;;-0.16;96.20
39891;BME280;25564;53.312;9.790;2022-12-16T12:04:39;100901.19;;;-0.07;95.73
39891;BME280;25564;53.312;9.790;2022-12-16T12:07:48;100909.25;;;0.02;96.03
39891;BME280;25564;53.312;9.790;2022-12-16T12:11:07;100905.81;;;0.05;95.97
39891;BME280;25564;53.312;9.790;2022-12-16T12:14:30;100910.25;;;0.07;96.04
39891;BME280;25564;53.312;9.790;2022-12-16T12:17:44;100914.63;;;0.08;95.80
39891;BME280;25564;53.312;9.790;2022-12-16T12:24:00;100912.69;;;-0.01;95.60
39891;BME280;25564;53.312;9.790;2022-12-16T12:27:29;100917.88;;;-0.01;96.33
39891;BME280;25564;53.312;9.790;2022-12-16T12:30:22;100916.13;;;-0.02;96.17
39891;BME280;25564;53.312;9.790;2022-12-16T12:39:52;100930.75;;;-0.07;96.69
39891;BME280;25564;53.312;9.790;2022-12-16T12:42:50;100929.25;;;0.03;95.98
39891;BME280;25564;53.312;9.790;2022-12-16T12:45:59;100935.63;;;0.13;96.66
39891;BME280;25564;53.312;9.790;2022-12-16T12:49:18;100914.66;;;0.10;96.08
39891;BME280;25564;53.312;9.790;2022-12-16T12:52:20;100933.41;;;0.26;96.42
39891;BME280;25564;53.312;9.790;2022-12-16T12:55:22;100941.28;;;0.28;95.89
39891;BME280;25564;53.312;9.790;2022-12-16T12:58:17;100928.81;;;0.18;95.97
39891;BME280;25564;53.312;9.790;2022-12-16T13:01:08;100952.69;;;0.31;96.18
39891;BME280;25564;53.312;9.790;2022-12-16T13:04:03;100942.97;;;0.26;95.64
39891;BME280;25564;53.312;9.790;2022-12-16T13:06:56;100941.84;;;0.18;95.87
39891;BME280;25564;53.312;9.790;2022-12-16T13:10:11;100960.75;;;0.09;96.28
39891;BME280;25564;53.312;9.790;2022-12-16T13:16:54;100956.16;;;0.00;95.53
39891;BME280;25564;53.312;9.790;2022-12-16T13:19:52;100960.44;;;-0.03;96.12
39891;BME280;25564;53.312;9.790;2022-12-16T13:22:44;100956.00;;;-0.06;95.81
39891;BME280;25564;53.312;9.790;2022-12-16T13:25:50;100963.59;;;-0.13;95.69
39891;BME280;25564;53.312;9.790;2022-12-16T13:28:41;100958.47;;;-0.10;96.42
39891;BME280;25564;53.312;9.790;2022-12-16T13:31:31;100963.00;;;-0.05;96.56
39891;BME280;25564;53.312;9.790;2022-12-16T13:34:27;100951.34;;;-0.16;96.07
39891;BME280;25564;53.312;9.790;2022-12-16T13:37:22;100954.91;;;-0.14;95.85
39891;BME280;25564;53.312;9.790;2022-12-16T13:40:20;100974.25;;;-0.06;95.87
39891;BME280;25564;53.312;9.790;2022-12-16T13:46:50;100966.06;;;-0.18;96.89
39891;BME280;25564;53.312;9.790;2022-12-16T13:49:44;100982.97;;;-0.05;96.41
39891;BME280;25564;53.312;9.790;2022-12-16T13:52:52;100979.63;;;-0.01;97.00
39891;BME280;25564;53.312;9.790;2022-12-16T13:55:54;100982.31;;;0.04;95.95
39891;BME280;25564;53.312;9.790;2022-12-16T13:58:50;100960.19;;;-0.11;96.46
39891;BME280;25564;53.312;9.790;2022-12-16T14:01:56;100996.22;;;0.03;96.05
39891;BME280;25564;53.312;9.790;2022-12-16T14:04:50;100987.44;;;0.00;95.97
39891;BME280;25564;53.312;9.790;2022-12-16T14:07:41;100977.72;;;-0.07;96.37
39891;BME280;25564;53.312;9.790;2022-12-16T14:10:35;100995.28;;;-0.01;95.87
39891;BME280;25564;53.312;9.790;2022-12-16T14:14:02;101006.41;;;-0.07;96.65
39891;BME280;25564;53.312;9.790;2022-12-16T14:19:55;101018.13;;;-0.21;96.19
39891;BME280;25564;53.312;9.790;2022-12-16T14:26:29;101033.25;;;-0.38;96.27
39891;BME280;25564;53.312;9.790;2022-12-16T14:29:22;101009.81;;;-0.64;95.67
39891;BME280;25564;53.312;9.790;2022-12-16T14:32:26;101037.63;;;-0.63;95.54
39891;BME280;25564;53.312;9.790;2022-12-16T14:35:21;101055.41;;;-0.77;96.09
39891;BME280;25564;53.312;9.790;2022-12-16T14:38:29;101049.78;;;-0.89;96.36
39891;BME280;25564;53.312;9.790;2022-12-16T14:41:23;101049.53;;;-0.97;95.78
39891;BME280;25564;53.312;9.790;2022-12-16T14:44:19;101052.78;;;-1.04;96.32
39891;BME280;25564;53.312;9.790;2022-12-16T14:47:15;101058.72;;;-1.08;95.28
39891;BME280;25564;53.312;9.790;2022-12-16T14:53:29;101048.78;;;-1.20;95.67
39891;BME280;25564;53.312;9.790;2022-12-16T14:56:21;101035.16;;;-1.37;95.45
39891;BME280;25564;53.312;9.790;2022-12-16T14:59:16;101059.53;;;-1.35;95.60
39891;BME280;25564;53.312;9.790;2022-12-16T15:05:09;101062.75;;;-1.42;95.54
39891;BME280;25564;53.312;9.790;2022-12-16T15:08:00;101067.72;;;-1.48;95.32
39891;BME280;25564;53.312;9.790;2022-12-16T15:10:51;101070.94;;;-1.55;95.48
39891;BME280;25564;53.312;9.790;2022-12-16T15:13:41;101054.53;;;-1.76;95.37
39891;BME280;25564;53.312;9.790;2022-12-16T15:16:35;101079.53;;;-1.80;94.41
39891;BME280;25564;53.312;9.790;2022-12-16T15:19:32;101084.28;;;-1.92;95.06
39891;BME280;25564;53.312;9.790;2022-12-16T15:22:34;101072.13;;;-2.15;94.28
39891;BME280;25564;53.312;9.790;2022-12-16T15:25:25;101073.59;;;-2.22;93.71
39891;BME280;25564;53.312;9.790;2022-12-16T15:28:27;101048.28;;;-2.48;93.55
39891;BME280;25564;53.312;9.790;2022-12-16T15:31:36;101098.41;;;-2.30;94.34
39891;BME280;25564;53.312;9.790;2022-12-16T15:34:47;101057.16;;;-2.64;94.21
39891;BME280;25564;53.312;9.790;2022-12-16T15:37:40;101111.25;;;-2.33;94.31
39891;BME280;25564;53.312;9.790;2022-12-16T15:40:39;101091.75;;;-2.44;94.46
39891;BME280;25564;53.312;9.790;2022-12-16T15:43:31;101108.84;;;-2.28;94.53
39891;BME280;25564;53.312;9.790;2022-12-16T15:46:28;101120.25;;;-2.25;94.80
39891;BME280;25564;53.312;9.790;2022-12-16T15:49:29;101133.44;;;-2.20;93.99